Página principal
METAR-TAF:

METAR-TAF

Aeroportos :

Rarotonga, Ilhas Cook

latitude: 21-12S, longitude: 159-49W, altura: 7 m

Observação actual do tempo

O boletim foi feito há 12 minutos, às 01:00 UTC
Vento 14 kt de este
Temperatura 23°C
Humidade 65%
Pressão 1016 hPa
Visibilidade 10 km ou mais
Poucas nuvensa uma altura de 2300 ft
Nuvens fragmentadasa uma altura de 29000 ft

METAR: NCRG 160100Z 10014KT 9999 FEW023 BKN290 23/16 Q1016

Hora: 15:12 (01:12 UTC)

Previsão

O boletim foi feito há 2 horas e 1 minutos, às 23:11 UTC
Previsão válida de 16 às 00 UTC a 16 às 24 UTC
Vento 15 kt de este
Visibilidade 10 km ou mais
Nuvens dispersasa uma altura de 1800 ft
Nuvens dispersasa uma altura de 10000 ft

TAF: NCRG 152311Z 1600/1624 10015KT 9999 SCT018 SCT100

Observações e previsões do tempo de mais de 4000 aeroportos (mensagens METAR e TAF).

As estações disponíveis são os pontos amarelos e vermelhos sobre o mapa.

Mova o rato sobre o mapa para ver o nome da estação.

Depois clique no ponto para visualizar as observações e previsões meteorológicas.

Para alterar o mapa : clique nos botões verdes com uma cruz preta para aumentar o zoom; no botão verde com uma pitada de zoom; ou nas setas verdes para mapas adjacentes.


METAR-TAF: